sensor_id;sensor_type;location;lat;lon;timestamp;pressure;altitude;pressure_sealevel;temperature;humidity
22862;BME280;11598;50.652;6.172;2023-10-13T00:07:16;96313.56;;;14.68;100.00
22862;BME280;11598;50.652;6.172;2023-10-13T00:17:16;96295.09;;;14.69;100.00
22862;BME280;11598;50.652;6.172;2023-10-13T00:27:20;96285.47;;;14.70;100.00
22862;BME280;11598;50.652;6.172;2023-10-13T00:37:30;96272.63;;;14.76;100.00
22862;BME280;11598;50.652;6.172;2023-10-13T00:47:41;96263.22;;;14.84;100.00
22862;BME280;11598;50.652;6.172;2023-10-13T00:57:53;96251.53;;;14.88;100.00
22862;BME280;11598;50.652;6.172;2023-10-13T01:07:54;96241.31;;;14.94;100.00
22862;BME280;11598;50.652;6.172;2023-10-13T01:18:06;96224.03;;;15.01;100.00
22862;BME280;11598;50.652;6.172;2023-10-13T01:28:11;96223.47;;;15.08;100.00
22862;BME280;11598;50.652;6.172;2023-10-13T01:38:16;96221.91;;;15.15;100.00
22862;BME280;11598;50.652;6.172;2023-10-13T01:48:16;96204.78;;;15.20;100.00
22862;BME280;11598;50.652;6.172;2023-10-13T01:58:18;96190.75;;;15.21;100.00
22862;BME280;11598;50.652;6.172;2023-10-13T02:08:23;96183.69;;;15.22;100.00
22862;BME280;11598;50.652;6.172;2023-10-13T02:18:24;96175.69;;;15.23;100.00
22862;BME280;11598;50.652;6.172;2023-10-13T02:28:28;96174.88;;;15.23;100.00
22862;BME280;11598;50.652;6.172;2023-10-13T02:38:31;96150.34;;;15.24;100.00
22862;BME280;11598;50.652;6.172;2023-10-13T02:48:34;96117.16;;;15.25;100.00
22862;BME280;11598;50.652;6.172;2023-10-13T02:58:41;96093.59;;;15.25;100.00
22862;BME280;11598;50.652;6.172;2023-10-13T03:08:45;96064.63;;;15.26;100.00
22862;BME280;11598;50.652;6.172;2023-10-13T03:18:47;96055.16;;;15.25;100.00
22862;BME280;11598;50.652;6.172;2023-10-13T03:28:57;96051.72;;;15.25;100.00
22862;BME280;11598;50.652;6.172;2023-10-13T03:38:58;96025.56;;;15.25;100.00
22862;BME280;11598;50.652;6.172;2023-10-13T03:48:58;96027.34;;;15.24;100.00
22862;BME280;11598;50.652;6.172;2023-10-13T03:59:01;96030.78;;;15.25;100.00
22862;BME280;11598;50.652;6.172;2023-10-13T04:09:06;96013.97;;;15.27;100.00
22862;BME280;11598;50.652;6.172;2023-10-13T04:19:32;95993.38;;;15.32;100.00
22862;BME280;11598;50.652;6.172;2023-10-13T04:29:52;95986.84;;;15.36;100.00
22862;BME280;11598;50.652;6.172;2023-10-13T04:40:08;95976.22;;;15.38;100.00
22862;BME280;11598;50.652;6.172;2023-10-13T04:50:09;95971.50;;;15.41;100.00
22862;BME280;11598;50.652;6.172;2023-10-13T05:00:22;95951.09;;;15.45;100.00
22862;BME280;11598;50.652;6.172;2023-10-13T05:10:52;95963.38;;;15.53;100.00
22862;BME280;11598;50.652;6.172;2023-10-13T05:21:10;95972.56;;;15.57;100.00
22862;BME280;11598;50.652;6.172;2023-10-13T05:31:31;95959.28;;;15.58;100.00
22862;BME280;11598;50.652;6.172;2023-10-13T05:41:50;95949.81;;;15.57;100.00
22862;BME280;11598;50.652;6.172;2023-10-13T05:52:09;95937.03;;;15.54;100.00
22862;BME280;11598;50.652;6.172;2023-10-13T06:02:20;95932.91;;;15.52;100.00
22862;BME280;11598;50.652;6.172;2023-10-13T06:12:39;95915.91;;;15.48;100.00
22862;BME280;11598;50.652;6.172;2023-10-13T06:22:58;95907.19;;;15.39;100.00
22862;BME280;11598;50.652;6.172;2023-10-13T06:33:17;95898.66;;;15.29;100.00
22862;BME280;11598;50.652;6.172;2023-10-13T06:43:17;95905.63;;;15.20;100.00
22862;BME280;11598;50.652;6.172;2023-10-13T06:53:21;95899.75;;;15.18;100.00
22862;BME280;11598;50.652;6.172;2023-10-13T07:03:22;95889.28;;;15.18;100.00
22862;BME280;11598;50.652;6.172;2023-10-13T07:13:22;95872.28;;;15.22;100.00
22862;BME280;11598;50.652;6.172;2023-10-13T07:23:23;95889.63;;;15.23;100.00
22862;BME280;11598;50.652;6.172;2023-10-13T07:33:24;95887.53;;;15.35;100.00
22862;BME280;11598;50.652;6.172;2023-10-13T07:43:24;95881.50;;;15.42;100.00
22862;BME280;11598;50.652;6.172;2023-10-13T07:53:27;95879.41;;;15.46;100.00
22862;BME280;11598;50.652;6.172;2023-10-13T08:03:29;95872.34;;;15.38;100.00
22862;BME280;11598;50.652;6.172;2023-10-13T08:13:35;95874.94;;;15.30;100.00
22862;BME280;11598;50.652;6.172;2023-10-13T08:23:38;95875.94;;;15.37;100.00
22862;BME280;11598;50.652;6.172;2023-10-13T08:34:05;95891.56;;;15.63;100.00
22862;BME280;11598;50.652;6.172;2023-10-13T08:44:16;95874.97;;;15.81;100.00
22862;BME280;11598;50.652;6.172;2023-10-13T08:54:35;95898.50;;;15.73;100.00
22862;BME280;11598;50.652;6.172;2023-10-13T09:04:39;95869.22;;;15.85;100.00
22862;BME280;11598;50.652;6.172;2023-10-13T09:14:44;95857.47;;;16.14;100.00
22862;BME280;11598;50.652;6.172;2023-10-13T09:24:58;95855.31;;;16.18;100.00
22862;BME280;11598;50.652;6.172;2023-10-13T09:35:01;95834.84;;;16.46;100.00
22862;BME280;11598;50.652;6.172;2023-10-13T09:45:04;95833.16;;;16.86;100.00
22862;BME280;11598;50.652;6.172;2023-10-13T09:55:26;95823.66;;;17.24;100.00
22862;BME280;11598;50.652;6.172;2023-10-13T10:05:28;95823.75;;;17.39;100.00
22862;BME280;11598;50.652;6.172;2023-10-13T10:15:35;95811.34;;;17.56;100.00
22862;BME280;11598;50.652;6.172;2023-10-13T10:25:43;95821.94;;;17.71;100.00
22862;BME280;11598;50.652;6.172;2023-10-13T10:35:46;95824.34;;;18.04;100.00
22862;BME280;11598;50.652;6.172;2023-10-13T10:45:48;95811.16;;;18.50;100.00
22862;BME280;11598;50.652;6.172;2023-10-13T10:55:51;95789.13;;;18.66;100.00
22862;BME280;11598;50.652;6.172;2023-10-13T11:05:51;95788.38;;;18.72;100.00
22862;BME280;11598;50.652;6.172;2023-10-13T11:15:52;95770.28;;;18.77;99.59
22862;BME280;11598;50.652;6.172;2023-10-13T11:25:59;95773.97;;;18.68;97.56
22862;BME280;11598;50.652;6.172;2023-10-13T11:35:59;95780.50;;;18.57;96.71
22862;BME280;11598;50.652;6.172;2023-10-13T11:46:03;95755.00;;;18.28;97.13
22862;BME280;11598;50.652;6.172;2023-10-13T11:56:09;95745.66;;;18.25;96.96
22862;BME280;11598;50.652;6.172;2023-10-13T12:06:10;95724.94;;;18.07;95.56
22862;BME280;11598;50.652;6.172;2023-10-13T12:16:28;95732.91;;;17.99;94.91
22862;BME280;11598;50.652;6.172;2023-10-13T12:26:34;95694.56;;;18.05;93.86
22862;BME280;11598;50.652;6.172;2023-10-13T12:36:38;95698.13;;;18.12;90.92
22862;BME280;11598;50.652;6.172;2023-10-13T12:46:41;95695.03;;;18.08;91.30
22862;BME280;11598;50.652;6.172;2023-10-13T12:57:00;95682.41;;;17.89;92.33
22862;BME280;11598;50.652;6.172;2023-10-13T13:07:01;95712.34;;;17.80;92.85
22862;BME280;11598;50.652;6.172;2023-10-13T13:17:01;95688.59;;;17.73;93.39
22862;BME280;11598;50.652;6.172;2023-10-13T13:27:04;95667.38;;;17.60;92.66
22862;BME280;11598;50.652;6.172;2023-10-13T13:37:05;95667.56;;;17.73;92.54
22862;BME280;11598;50.652;6.172;2023-10-13T13:47:05;95669.19;;;17.97;90.41
22862;BME280;11598;50.652;6.172;2023-10-13T13:57:11;95675.00;;;18.07;88.24
22862;BME280;11598;50.652;6.172;2023-10-13T14:07:13;95662.31;;;18.11;88.24
22862;BME280;11598;50.652;6.172;2023-10-13T14:17:15;95673.38;;;18.06;86.48
22862;BME280;11598;50.652;6.172;2023-10-13T14:27:15;95673.81;;;17.95;87.04
22862;BME280;11598;50.652;6.172;2023-10-13T14:37:19;95644.00;;;17.65;87.36
22862;BME280;11598;50.652;6.172;2023-10-13T14:47:26;95662.13;;;17.60;86.57
22862;BME280;11598;50.652;6.172;2023-10-13T14:57:26;95636.94;;;17.65;85.67
22862;BME280;11598;50.652;6.172;2023-10-13T15:07:27;95629.59;;;17.61;85.10
22862;BME280;11598;50.652;6.172;2023-10-13T15:17:28;95625.75;;;17.48;87.41
22862;BME280;11598;50.652;6.172;2023-10-13T15:27:29;95611.50;;;17.05;91.65
22862;BME280;11598;50.652;6.172;2023-10-13T15:37:29;95590.41;;;16.98;92.27
22862;BME280;11598;50.652;6.172;2023-10-13T15:47:30;95571.59;;;17.09;90.97
22862;BME280;11598;50.652;6.172;2023-10-13T15:57:34;95569.56;;;17.20;90.69
22862;BME280;11598;50.652;6.172;2023-10-13T16:07:36;95575.75;;;17.27;90.37
22862;BME280;11598;50.652;6.172;2023-10-13T16:17:37;95571.31;;;17.27;89.75
22862;BME280;11598;50.652;6.172;2023-10-13T16:27:41;95543.75;;;17.23;90.69
22862;BME280;11598;50.652;6.172;2023-10-13T16:37:45;95558.56;;;17.01;93.25
22862;BME280;11598;50.652;6.172;2023-10-13T16:47:47;95530.50;;;17.02;93.74
22862;BME280;11598;50.652;6.172;2023-10-13T16:57:47;95534.81;;;17.18;91.12
22862;BME280;11598;50.652;6.172;2023-10-13T17:07:50;95514.13;;;17.00;93.29
22862;BME280;11598;50.652;6.172;2023-10-13T17:17:51;95508.41;;;16.73;95.61
22862;BME280;11598;50.652;6.172;2023-10-13T17:27:52;95504.44;;;16.77;95.26
22862;BME280;11598;50.652;6.172;2023-10-13T17:37:52;95496.13;;;16.97;93.13
22862;BME280;11598;50.652;6.172;2023-10-13T17:47:53;95487.94;;;17.15;91.24
22862;BME280;11598;50.652;6.172;2023-10-13T17:57:54;95477.97;;;17.25;89.64
22862;BME280;11598;50.652;6.172;2023-10-13T18:07:54;95485.16;;;17.31;89.22
22862;BME280;11598;50.652;6.172;2023-10-13T18:17:54;95479.84;;;17.16;90.79
22862;BME280;11598;50.652;6.172;2023-10-13T18:27:56;95461.91;;;16.90;93.66
22862;BME280;11598;50.652;6.172;2023-10-13T18:37:56;95458.34;;;16.83;93.38
22862;BME280;11598;50.652;6.172;2023-10-13T18:48:00;95420.38;;;16.94;92.97
22862;BME280;11598;50.652;6.172;2023-10-13T18:58:02;95373.59;;;16.82;94.35
22862;BME280;11598;50.652;6.172;2023-10-13T19:08:03;95350.88;;;16.75;94.31
22862;BME280;11598;50.652;6.172;2023-10-13T19:18:08;95378.03;;;16.97;92.51
22862;BME280;11598;50.652;6.172;2023-10-13T19:28:08;95356.06;;;17.13;91.92
22862;BME280;11598;50.652;6.172;2023-10-13T19:38:10;95348.84;;;16.62;97.45
22862;BME280;11598;50.652;6.172;2023-10-13T19:48:11;95363.88;;;15.84;100.00
22862;BME280;11598;50.652;6.172;2023-10-13T19:58:11;95343.47;;;15.40;100.00
22862;BME280;11598;50.652;6.172;2023-10-13T20:08:15;95325.94;;;15.17;100.00
22862;BME280;11598;50.652;6.172;2023-10-13T20:18:15;95318.91;;;15.10;100.00
22862;BME280;11598;50.652;6.172;2023-10-13T20:28:20;95320.19;;;15.22;100.00
22862;BME280;11598;50.652;6.172;2023-10-13T20:38:21;95321.69;;;15.48;100.00
22862;BME280;11598;50.652;6.172;2023-10-13T20:48:25;95309.13;;;15.66;100.00
22862;BME280;11598;50.652;6.172;2023-10-13T20:58:28;95323.69;;;15.69;100.00
22862;BME280;11598;50.652;6.172;2023-10-13T21:08:29;95316.31;;;15.41;100.00
22862;BME280;11598;50.652;6.172;2023-10-13T21:18:29;95319.53;;;15.20;100.00
22862;BME280;11598;50.652;6.172;2023-10-13T21:28:29;95285.75;;;15.10;100.00
22862;BME280;11598;50.652;6.172;2023-10-13T21:38:32;95291.81;;;15.02;100.00
22862;BME280;11598;50.652;6.172;2023-10-13T21:48:34;95291.56;;;14.89;100.00
22862;BME280;11598;50.652;6.172;2023-10-13T21:58:38;95291.59;;;14.73;100.00
22862;BME280;11598;50.652;6.172;2023-10-13T22:08:38;95283.78;;;14.65;100.00
22862;BME280;11598;50.652;6.172;2023-10-13T22:18:40;95269.75;;;14.57;100.00
22862;BME280;11598;50.652;6.172;2023-10-13T22:28:45;95228.28;;;14.54;100.00
22862;BME280;11598;50.652;6.172;2023-10-13T22:38:53;95233.31;;;14.48;100.00
22862;BME280;11598;50.652;6.172;2023-10-13T22:48:58;95213.22;;;14.48;100.00
22862;BME280;11598;50.652;6.172;2023-10-13T22:58:59;95204.06;;;14.52;100.00
22862;BME280;11598;50.652;6.172;2023-10-13T23:08:59;95198.84;;;14.61;100.00
22862;BME280;11598;50.652;6.172;2023-10-13T23:19:11;95216.66;;;14.57;100.00
22862;BME280;11598;50.652;6.172;2023-10-13T23:29:12;95205.06;;;14.51;100.00
22862;BME280;11598;50.652;6.172;2023-10-13T23:39:12;95203.59;;;14.49;100.00
22862;BME280;11598;50.652;6.172;2023-10-13T23:49:13;95192.66;;;14.53;100.00
22862;BME280;11598;50.652;6.172;2023-10-13T23:59:18;95208.97;;;14.64;100.00
